createdAt,value
2018-11-13T00:00:24.978Z,100553.36
2018-11-13T00:02:54.722Z,100551.91
2018-11-13T00:05:24.392Z,100563.97
2018-11-13T00:07:53.638Z,100572.37
2018-11-13T00:10:22.891Z,100580.39
2018-11-13T00:12:52.207Z,100579.83
2018-11-13T00:15:21.827Z,100580.69
2018-11-13T00:17:51.064Z,100586.93
2018-11-13T00:20:20.438Z,100581.69
2018-11-13T00:22:49.665Z,100578.69
2018-11-13T00:25:20.054Z,100586.89
2018-11-13T00:27:50.863Z,100595.06
2018-11-13T00:30:21.633Z,100597.05
2018-11-13T00:32:51.105Z,100578.78
2018-11-13T00:35:21.156Z,100569.66
2018-11-13T00:37:50.766Z,100566.95
2018-11-13T00:40:20.171Z,100570.13
2018-11-13T00:42:49.750Z,100567.92
2018-11-13T00:45:19.538Z,100567.09
2018-11-13T00:47:49.133Z,100570.27
2018-11-13T00:50:19.908Z,100562.95
2018-11-13T00:52:49.400Z,100563.39
2018-11-13T00:55:19.592Z,100577.38
2018-11-13T00:57:49.152Z,100589.67
2018-11-13T01:00:20.927Z,100598.80
2018-11-13T01:02:50.101Z,100613.19
2018-11-13T01:05:21.035Z,100613.08
2018-11-13T01:07:51.210Z,100617.55
2018-11-13T01:10:21.124Z,100630.23
2018-11-13T01:12:50.398Z,100631.13
2018-11-13T01:15:20.824Z,100633.23
2018-11-13T01:17:50.379Z,100639.35
2018-11-13T01:20:20.025Z,100638.84
2018-11-13T01:22:49.248Z,100634.31
2018-11-13T01:25:19.420Z,100635.25
2018-11-13T01:27:49.603Z,100644.06
2018-11-13T01:30:19.877Z,100659.50
2018-11-13T01:32:49.056Z,100659.96
2018-11-13T01:35:19.679Z,100659.30
2018-11-13T01:37:48.918Z,100657.12
2018-11-13T01:40:20.865Z,100645.93
2018-11-13T01:42:50.162Z,100646.28
2018-11-13T01:45:20.055Z,100644.85
2018-11-13T01:47:49.241Z,100638.36
2018-11-13T01:50:21.987Z,100644.68
2018-11-13T01:52:51.303Z,100653.45
2018-11-13T01:55:21.131Z,100650.01
2018-11-13T01:57:50.313Z,100657.74
2018-11-13T02:00:22.201Z,100656.97
2018-11-13T02:02:53.531Z,100649.19
2018-11-13T02:05:24.663Z,100636.65
2018-11-13T02:07:54.446Z,100627.91
2018-11-13T02:10:23.696Z,100625.27
2018-11-13T02:12:53.151Z,100631.06
2018-11-13T02:15:22.640Z,100626.81
2018-11-13T02:17:51.940Z,100623.28
2018-11-13T02:20:22.161Z,100625.28
2018-11-13T02:22:51.376Z,100631.16
2018-11-13T02:25:21.292Z,100641.84
2018-11-13T02:27:50.624Z,100650.32
2018-11-13T02:30:22.206Z,100655.39
2018-11-13T02:32:51.524Z,100657.05
2018-11-13T02:35:21.042Z,100664.27
2018-11-13T02:37:50.223Z,100662.33
2018-11-13T02:40:20.167Z,100660.27
2018-11-13T02:42:49.852Z,100662.45
2018-11-13T02:45:20.908Z,100681.45
2018-11-13T02:47:50.088Z,100698.59
2018-11-13T02:50:20.524Z,100693.38
2018-11-13T02:52:49.792Z,100677.13
2018-11-13T02:55:19.320Z,100671.05
2018-11-13T02:57:48.595Z,100669.52
2018-11-13T03:00:20.391Z,100681.63
2018-11-13T03:02:49.846Z,100697.97
2018-11-13T03:05:20.634Z,100707.73
2018-11-13T03:07:49.861Z,100709.68
2018-11-13T03:10:20.485Z,100710.11
2018-11-13T03:12:49.806Z,100702.57
2018-11-13T03:15:20.699Z,100707.21
2018-11-13T03:17:49.956Z,100722.67
2018-11-13T03:20:21.151Z,100726.45
2018-11-13T03:22:50.657Z,100723.94
2018-11-13T03:25:21.176Z,100714.39
2018-11-13T03:27:50.355Z,100717.03
2018-11-13T03:30:21.589Z,100729.27
2018-11-13T03:32:50.978Z,100729.31
2018-11-13T03:35:20.952Z,100737.99
2018-11-13T03:37:50.193Z,100737.67
2018-11-13T03:40:19.724Z,100724.94
2018-11-13T03:42:49.674Z,100722.88
2018-11-13T03:45:20.152Z,100717.81
2018-11-13T03:47:49.346Z,100705.20
2018-11-13T03:50:20.183Z,100707.06
2018-11-13T03:52:49.565Z,100704.38
2018-11-13T03:55:20.157Z,100705.39
2018-11-13T03:57:49.828Z,100721.27
2018-11-13T04:00:21.206Z,100727.00
2018-11-13T04:02:50.410Z,100738.64
2018-11-13T04:05:21.827Z,100746.59
2018-11-13T04:07:52.138Z,100748.26
2018-11-13T04:10:22.139Z,100744.49
2018-11-13T04:12:51.281Z,100749.36
2018-11-13T04:15:24.442Z,100755.22
2018-11-13T04:17:53.787Z,100755.36
2018-11-13T04:20:23.479Z,100760.16
2018-11-13T04:22:52.657Z,100758.80
2018-11-13T04:25:21.831Z,100763.14
2018-11-13T04:27:50.984Z,100760.45
2018-11-13T04:30:20.147Z,100770.06
2018-11-13T04:32:49.348Z,100757.78
2018-11-13T04:35:19.320Z,100767.46
2018-11-13T04:37:48.515Z,100765.84
2018-11-13T04:40:20.197Z,100764.48
2018-11-13T04:42:50.651Z,100771.69
2018-11-13T04:45:21.154Z,100781.45
2018-11-13T04:47:50.753Z,100788.25
2018-11-13T04:50:20.974Z,100781.45
2018-11-13T04:52:50.232Z,100782.63
2018-11-13T04:55:19.691Z,100784.96
2018-11-13T04:57:49.668Z,100779.78
2018-11-13T05:00:20.628Z,100773.21
2018-11-13T05:02:49.869Z,100768.73
2018-11-13T05:05:19.800Z,100770.45
2018-11-13T05:07:52.196Z,100769.77
2018-11-13T05:10:21.764Z,100776.34
2018-11-13T05:12:50.979Z,100791.58
2018-11-13T05:15:20.615Z,100793.50
2018-11-13T05:17:49.913Z,100805.12
2018-11-13T05:20:19.599Z,100811.52
2018-11-13T05:22:48.778Z,100809.98
2018-11-13T05:25:19.576Z,100804.42
2018-11-13T05:27:48.878Z,100810.44
2018-11-13T05:30:20.303Z,100814.34
2018-11-13T05:32:49.667Z,100825.06
2018-11-13T05:35:20.487Z,100822.70
2018-11-13T05:37:49.683Z,100825.16
2018-11-13T05:40:22.029Z,100829.29
2018-11-13T05:42:51.224Z,100836.47
2018-11-13T05:45:21.843Z,100836.66
2018-11-13T05:47:51.053Z,100839.85
2018-11-13T05:50:20.642Z,100848.08
2018-11-13T05:52:51.238Z,100843.53
2018-11-13T05:55:21.884Z,100836.01
2018-11-13T05:57:51.384Z,100833.89
2018-11-13T06:00:24.454Z,100839.17
2018-11-13T06:02:53.813Z,100845.89
2018-11-13T06:05:22.976Z,100852.33
2018-11-13T06:07:52.171Z,100862.77
2018-11-13T06:10:21.365Z,100859.86
2018-11-13T06:12:51.345Z,100873.33
2018-11-13T06:15:20.959Z,100880.02
2018-11-13T06:17:50.195Z,100875.28
2018-11-13T06:20:19.919Z,100870.94
2018-11-13T06:22:49.155Z,100874.11
2018-11-13T06:25:18.481Z,100868.63
2018-11-13T06:27:48.619Z,100876.25
2018-11-13T06:30:21.039Z,100874.08
2018-11-13T06:32:50.524Z,100876.08
2018-11-13T06:35:19.671Z,100885.80
2018-11-13T06:37:48.914Z,100882.37
2018-11-13T06:40:18.120Z,100886.27
2018-11-13T06:42:47.344Z,100890.54
2018-11-13T06:45:20.647Z,100893.12
2018-11-13T06:47:50.290Z,100902.95
2018-11-13T06:50:19.472Z,100907.53
2018-11-13T06:52:49.528Z,100922.72
2018-11-13T06:55:22.436Z,100924.79
2018-11-13T06:57:51.729Z,100930.11
2018-11-13T07:00:20.939Z,100926.58
2018-11-13T07:02:50.170Z,100930.73
2018-11-13T07:05:19.593Z,100933.00
2018-11-13T07:07:48.946Z,100931.15
2018-11-13T07:10:19.421Z,100935.34
2018-11-13T07:12:49.707Z,100939.46
2018-11-13T07:15:20.214Z,100956.73
2018-11-13T07:17:50.507Z,100953.16
2018-11-13T07:20:20.814Z,100969.32
2018-11-13T07:22:50.016Z,100980.08
2018-11-13T07:25:19.307Z,100986.88
2018-11-13T07:27:48.522Z,100976.95
2018-11-13T07:30:18.755Z,100974.52
2018-11-13T07:32:47.933Z,100978.30
2018-11-13T07:35:18.204Z,100978.16
2018-11-13T07:37:49.113Z,100978.81
2018-11-13T07:40:18.471Z,100979.97
2018-11-13T07:42:47.637Z,100989.77
2018-11-13T07:45:16.894Z,100989.52
2018-11-13T07:47:46.965Z,100985.91
2018-11-13T07:50:16.263Z,100978.38
2018-11-13T07:52:45.488Z,100977.86
2018-11-13T07:55:15.571Z,100992.63
2018-11-13T07:57:44.919Z,101023.94
2018-11-13T08:00:16.883Z,101045.80
2018-11-13T08:02:47.656Z,101043.50
2018-11-13T08:05:16.896Z,101042.92
2018-11-13T08:07:46.077Z,101030.92
2018-11-13T08:10:15.468Z,101038.61
2018-11-13T08:12:44.828Z,101044.13
2018-11-13T08:15:15.179Z,101041.77
2018-11-13T08:17:44.396Z,101047.14
2018-11-13T08:20:14.847Z,101059.12
2018-11-13T08:22:44.339Z,101059.64
2018-11-13T08:25:13.969Z,101048.37
2018-11-13T08:27:43.445Z,101044.25
2018-11-13T08:30:15.935Z,101061.88
2018-11-13T08:32:45.869Z,101088.63
2018-11-13T08:35:15.383Z,101101.91
2018-11-13T08:37:44.540Z,101106.13
2018-11-13T08:40:14.986Z,101105.04
2018-11-13T08:42:44.918Z,101098.41
2018-11-13T08:45:14.846Z,101096.30
2018-11-13T08:47:44.036Z,101085.94
2018-11-13T08:50:13.958Z,101090.31
2018-11-13T08:52:43.989Z,101090.13
2018-11-13T08:55:13.862Z,101102.66
2018-11-13T08:57:43.601Z,101111.44
2018-11-13T09:00:14.623Z,101123.85
2018-11-13T09:02:44.420Z,101124.52
2018-11-13T09:05:14.090Z,101125.31
2018-11-13T09:07:43.215Z,101124.05
2018-11-13T09:10:14.025Z,101126.09
2018-11-13T09:12:43.699Z,101135.86
2018-11-13T09:15:16.144Z,101134.64
2018-11-13T09:17:45.484Z,101148.98
2018-11-13T09:20:15.833Z,101149.81
2018-11-13T09:22:45.050Z,101148.16
2018-11-13T09:25:16.450Z,101154.27
2018-11-13T09:27:45.652Z,101157.75
2018-11-13T09:30:16.512Z,101165.14
2018-11-13T09:32:46.074Z,101173.41
2018-11-13T09:35:16.254Z,101169.45
2018-11-13T09:37:45.381Z,101171.63
2018-11-13T09:40:16.189Z,101172.89
2018-11-13T09:42:46.196Z,101170.55
2018-11-13T09:45:15.934Z,101177.33
2018-11-13T09:47:45.209Z,101181.88
2018-11-13T09:50:15.910Z,101175.27
2018-11-13T09:52:46.361Z,101187.20
2018-11-13T09:55:16.930Z,101180.66
2018-11-13T09:57:46.101Z,101183.92
2018-11-13T10:00:17.661Z,101179.17
2018-11-13T10:02:48.769Z,101183.77
2018-11-13T10:05:18.582Z,101189.10
2018-11-13T10:07:47.963Z,101177.77
2018-11-13T10:10:17.230Z,101178.98
2018-11-13T10:12:47.164Z,101181.48
2018-11-13T10:15:20.987Z,101183.20
2018-11-13T10:17:50.281Z,101192.25
2018-11-13T10:20:19.362Z,101185.03
2018-11-13T10:22:50.835Z,101191.90
2018-11-13T10:25:20.011Z,101200.66
2018-11-13T10:27:49.295Z,101193.37
2018-11-13T10:30:20.611Z,101197.77
2018-11-13T10:32:50.590Z,101190.40
2018-11-13T10:35:21.023Z,101186.94
2018-11-13T10:37:50.230Z,101184.83
2018-11-13T10:40:20.506Z,101179.38
2018-11-13T10:42:49.969Z,101174.56
2018-11-13T10:45:22.112Z,101165.00
2018-11-13T10:47:51.433Z,101169.16
2018-11-13T10:50:22.108Z,101167.93
2018-11-13T10:52:51.372Z,101164.95
2018-11-13T10:55:20.596Z,101167.00
2018-11-13T10:57:49.855Z,101166.73
2018-11-13T11:00:25.675Z,101160.92
2018-11-13T11:03:01.166Z,101163.87
2018-11-13T11:05:31.613Z,101165.53
2018-11-13T11:08:01.912Z,101165.67
2018-11-13T11:10:32.093Z,101172.39
2018-11-13T11:13:02.096Z,101165.41
2018-11-13T11:15:32.524Z,101173.59
2018-11-13T11:18:01.784Z,101174.35
2018-11-13T11:20:30.912Z,101183.48
2018-11-13T11:23:00.158Z,101179.64
2018-11-13T11:25:29.317Z,101176.23
2018-11-13T11:27:58.540Z,101186.86
2018-11-13T11:30:27.631Z,101178.70
2018-11-13T11:32:56.805Z,101174.88
2018-11-13T11:35:26.027Z,101170.03
2018-11-13T11:37:55.208Z,101165.13
2018-11-13T11:40:24.388Z,101163.97
2018-11-13T11:42:53.573Z,101166.98
2018-11-13T11:45:22.744Z,101169.69
2018-11-13T11:47:51.948Z,101170.41
2018-11-13T11:50:21.111Z,101170.45
2018-11-13T11:52:50.276Z,101170.52
2018-11-13T11:55:19.475Z,101186.94
2018-11-13T11:57:48.653Z,101182.23
2018-11-13T12:00:19.185Z,101189.17
2018-11-13T12:02:48.431Z,101190.02
2018-11-13T12:05:17.698Z,101181.88
2018-11-13T12:07:47.847Z,101183.10
2018-11-13T12:10:17.008Z,101178.09
2018-11-13T12:12:46.156Z,101185.44
2018-11-13T12:15:15.366Z,101175.54
2018-11-13T12:17:45.315Z,101188.14
2018-11-13T12:20:15.391Z,101184.53
2018-11-13T12:22:44.639Z,101183.29
2018-11-13T12:25:20.065Z,101187.13
2018-11-13T12:27:47.583Z,101182.66
2018-11-13T12:30:18.238Z,101188.73
2018-11-13T12:32:48.224Z,101185.42
2018-11-13T12:35:18.302Z,101178.17
2018-11-13T12:38:13.936Z,101163.29
2018-11-13T12:40:43.209Z,101181.23
2018-11-13T12:43:12.330Z,101190.00
2018-11-13T12:45:41.523Z,101185.47
2018-11-13T12:48:10.988Z,101176.39
2018-11-13T12:50:45.439Z,101190.59
2018-11-13T12:53:14.585Z,101197.02
2018-11-13T12:55:43.839Z,101193.57
2018-11-13T12:58:12.939Z,101201.27
2018-11-13T13:00:42.224Z,101197.52
2018-11-13T13:03:11.783Z,101200.33
2018-11-13T13:05:40.992Z,101204.17
2018-11-13T13:08:10.422Z,101198.95
2018-11-13T13:10:39.698Z,101195.78
2018-11-13T13:13:09.427Z,101205.61
2018-11-13T13:15:38.800Z,101203.87
2018-11-13T13:18:08.040Z,101207.82
2018-11-13T13:20:37.203Z,101208.84
2018-11-13T13:23:06.592Z,101203.45
2018-11-13T13:25:35.896Z,101189.11
2018-11-13T13:28:05.291Z,101209.68
2018-11-13T13:30:34.563Z,101204.23
2018-11-13T13:33:04.283Z,101207.30
2018-11-13T13:35:38.004Z,101213.69
2018-11-13T13:38:08.276Z,101215.81
2018-11-13T13:40:38.546Z,101212.50
2018-11-13T13:43:08.823Z,101202.36
2018-11-13T13:45:38.485Z,101207.63
2018-11-13T13:48:08.173Z,101210.51
2018-11-13T13:50:37.669Z,101216.07
2018-11-13T13:53:07.919Z,101216.07
2018-11-13T13:55:37.353Z,101221.09
2018-11-13T13:58:06.653Z,101214.83
2018-11-13T14:00:35.886Z,101218.95
2018-11-13T14:03:06.321Z,101228.67
2018-11-13T14:05:35.564Z,101231.41
2018-11-13T14:08:05.006Z,101235.58
2018-11-13T14:10:34.305Z,101237.69
2018-11-13T14:13:03.508Z,101237.41
2018-11-13T14:15:32.736Z,101233.09
2018-11-13T14:18:01.886Z,101237.31
2018-11-13T14:20:31.073Z,101234.37
2018-11-13T14:23:00.256Z,101237.64
2018-11-13T14:25:29.585Z,101234.75
2018-11-13T14:27:58.869Z,101240.66
2018-11-13T14:30:29.542Z,101244.88
2018-11-13T14:33:02.064Z,101252.28
2018-11-13T14:35:31.394Z,101253.58
2018-11-13T14:38:01.068Z,101258.21
2018-11-13T14:40:35.045Z,101262.59
2018-11-13T14:43:04.403Z,101267.26
2018-11-13T14:45:33.652Z,101275.14
2018-11-13T14:48:02.920Z,101285.54
2018-11-13T14:50:33.433Z,101295.93
2018-11-13T14:53:02.939Z,101289.45
2018-11-13T14:55:34.727Z,101297.11
2018-11-13T14:58:04.771Z,101302.55
2018-11-13T15:00:35.144Z,101298.10
2018-11-13T15:03:05.247Z,101306.64
2018-11-13T15:05:34.895Z,101305.08
2018-11-13T15:08:05.354Z,101307.07
2018-11-13T15:10:36.393Z,101313.34
2018-11-13T15:13:06.008Z,101316.59
2018-11-13T15:15:35.224Z,101314.92
2018-11-13T15:18:04.662Z,101319.70
2018-11-13T15:20:33.889Z,101332.33
2018-11-13T15:23:03.107Z,101326.00
2018-11-13T15:25:32.331Z,101328.91
2018-11-13T15:28:01.527Z,101333.96
2018-11-13T15:30:32.262Z,101344.45
2018-11-13T15:33:03.715Z,101345.00
2018-11-13T15:35:32.913Z,101348.85
2018-11-13T15:38:02.095Z,101360.41
2018-11-13T15:40:31.802Z,101361.91
2018-11-13T15:43:01.014Z,101364.60
2018-11-13T15:45:30.187Z,101376.70
2018-11-13T15:48:00.736Z,101371.36
2018-11-13T15:50:32.131Z,101375.23
2018-11-13T15:53:01.386Z,101382.64
2018-11-13T15:55:30.582Z,101384.00
2018-11-13T15:58:00.254Z,101388.25
2018-11-13T16:00:31.853Z,101390.95
2018-11-13T16:03:07.193Z,101386.73
2018-11-13T16:05:39.728Z,101391.12
2018-11-13T16:08:09.809Z,101395.81
2018-11-13T16:10:39.004Z,101402.92
2018-11-13T16:13:08.624Z,101403.05
2018-11-13T16:15:37.824Z,101406.44
2018-11-13T16:18:08.925Z,101412.63
2018-11-13T16:20:38.142Z,101422.56
2018-11-13T16:23:07.482Z,101421.38
2018-11-13T16:25:36.706Z,101432.97
2018-11-13T16:28:06.000Z,101428.92
2018-11-13T16:30:36.670Z,101439.16
2018-11-13T16:33:06.169Z,101442.19
2018-11-13T16:35:35.422Z,101452.58
2018-11-13T16:38:06.201Z,101456.42
2018-11-13T16:40:35.351Z,101456.95
2018-11-13T16:43:04.568Z,101455.09
2018-11-13T16:45:34.529Z,101464.16
2018-11-13T16:48:04.363Z,101466.34
2018-11-13T16:50:35.233Z,101466.48
2018-11-13T16:53:04.787Z,101461.63
2018-11-13T16:55:39.120Z,101466.46
2018-11-13T16:58:11.851Z,101467.47
2018-11-13T17:00:41.254Z,101471.16
2018-11-13T17:03:10.372Z,101465.77
2018-11-13T17:05:39.702Z,101468.95
2018-11-13T17:08:09.750Z,101484.05
2018-11-13T17:10:40.952Z,101480.19
2018-11-13T17:13:10.179Z,101478.84
2018-11-13T17:15:39.692Z,101476.45
2018-11-13T17:18:08.909Z,101480.48
2018-11-13T17:20:38.114Z,101481.16
2018-11-13T17:23:07.437Z,101488.03
2018-11-13T17:25:37.873Z,101480.95
2018-11-13T17:28:07.607Z,101487.98
2018-11-13T17:30:37.061Z,101489.00
2018-11-13T17:33:07.663Z,101489.84
2018-11-13T17:35:36.863Z,101493.35
2018-11-13T17:38:06.436Z,101490.67
2018-11-13T17:40:36.565Z,101497.38
2018-11-13T17:43:06.782Z,101497.16
2018-11-13T17:45:42.171Z,101501.01
2018-11-13T17:48:12.084Z,101501.57
2018-11-13T17:50:42.454Z,101504.25
2018-11-13T17:53:12.102Z,101513.36
2018-11-13T17:55:41.565Z,101514.65
2018-11-13T17:58:12.440Z,101520.84
2018-11-13T18:00:45.979Z,101522.47
2018-11-13T18:03:16.596Z,101528.64
2018-11-13T18:05:46.597Z,101523.86
2018-11-13T18:08:15.937Z,101531.56
2018-11-13T18:10:46.148Z,101535.52
2018-11-13T18:13:15.918Z,101539.16
2018-11-13T18:15:45.383Z,101534.91
2018-11-13T18:18:15.078Z,101537.59
2018-11-13T18:20:44.467Z,101545.95
2018-11-13T18:23:13.984Z,101547.62
2018-11-13T18:25:43.332Z,101551.77
2018-11-13T18:28:12.905Z,101547.67
2018-11-13T18:30:42.188Z,101548.37
2018-11-13T18:33:11.866Z,101546.47
2018-11-13T18:35:41.279Z,101552.33
2018-11-13T18:38:12.141Z,101548.48
2018-11-13T18:40:41.409Z,101552.44
2018-11-13T18:43:10.917Z,101554.27
2018-11-13T18:45:41.259Z,101550.33
2018-11-13T18:48:10.470Z,101550.83
2018-11-13T18:50:41.433Z,101555.27
2018-11-13T18:53:10.653Z,101551.88
2018-11-13T18:55:40.193Z,101551.91
2018-11-13T18:58:09.376Z,101555.11
2018-11-13T19:00:39.739Z,101553.91
2018-11-13T19:03:10.182Z,101556.74
2018-11-13T19:05:39.353Z,101564.94
2018-11-13T19:08:09.053Z,101561.12
2018-11-13T19:10:39.772Z,101567.95
2018-11-13T19:13:13.552Z,101563.59
2018-11-13T19:15:44.566Z,101565.91
2018-11-13T19:18:14.970Z,101568.56
2018-11-13T19:20:46.966Z,101569.65
2018-11-13T19:23:18.371Z,101573.33
2018-11-13T19:25:48.888Z,101572.30
2018-11-13T19:28:18.852Z,101577.78
2018-11-13T19:30:51.112Z,101588.44
2018-11-13T19:33:20.417Z,101585.66
2018-11-13T19:35:49.886Z,101584.77
2018-11-13T19:38:18.981Z,101586.41
2018-11-13T19:40:48.179Z,101585.73
2018-11-13T19:43:17.590Z,101587.72
2018-11-13T19:45:46.855Z,101591.58
2018-11-13T19:48:16.107Z,101596.58
2018-11-13T19:50:45.328Z,101605.16
2018-11-13T19:53:15.038Z,101612.11
2018-11-13T19:55:44.402Z,101604.62
2018-11-13T19:58:14.083Z,101611.20
2018-11-13T20:00:43.372Z,101610.36
2018-11-13T20:03:13.009Z,101615.64
2018-11-13T20:05:42.210Z,101617.05
2018-11-13T20:08:12.365Z,101617.02
2018-11-13T20:10:41.844Z,101620.27
2018-11-13T20:13:11.399Z,101615.48
2018-11-13T20:15:40.924Z,101617.32
2018-11-13T20:18:10.131Z,101623.28
2018-11-13T20:20:39.385Z,101620.06
2018-11-13T20:23:09.254Z,101616.78
2018-11-13T20:25:38.630Z,101621.02
2018-11-13T20:28:07.782Z,101624.84
2018-11-13T20:30:38.382Z,101628.09
2018-11-13T20:33:07.692Z,101627.42
2018-11-13T20:35:36.951Z,101634.60
2018-11-13T20:38:06.722Z,101635.94
2018-11-13T20:40:37.172Z,101638.16
2018-11-13T20:43:08.509Z,101640.56
2018-11-13T20:45:37.755Z,101636.63
2018-11-13T20:48:07.160Z,101638.31
2018-11-13T20:50:36.334Z,101640.22
2018-11-13T20:53:05.548Z,101643.81
2018-11-13T20:55:34.729Z,101647.25
2018-11-13T20:58:03.939Z,101653.81
2018-11-13T21:00:34.395Z,101655.17
2018-11-13T21:03:03.640Z,101655.67
2018-11-13T21:05:32.772Z,101663.20
2018-11-13T21:08:01.997Z,101655.74
2018-11-13T21:10:34.896Z,101663.06
2018-11-13T21:13:04.528Z,101659.34
2018-11-13T21:15:33.984Z,101650.59
2018-11-13T21:18:03.890Z,101659.84
2018-11-13T21:20:33.055Z,101660.20
2018-11-13T21:23:02.295Z,101661.24
2018-11-13T21:25:31.482Z,101663.24
2018-11-13T21:28:01.979Z,101670.51
2018-11-13T21:30:31.175Z,101674.86
2018-11-13T21:33:00.272Z,101679.02
2018-11-13T21:35:29.446Z,101676.25
2018-11-13T21:37:58.981Z,101669.72
2018-11-13T21:40:28.572Z,101671.75
2018-11-13T21:42:58.294Z,101669.52
2018-11-13T21:45:28.359Z,101673.53
2018-11-13T21:47:57.989Z,101665.02
2018-11-13T21:50:28.645Z,101677.77
2018-11-13T21:52:58.250Z,101674.28
2018-11-13T21:55:28.477Z,101673.17
2018-11-13T21:57:58.380Z,101678.38
2018-11-13T22:00:29.349Z,101679.22
2018-11-13T22:03:00.072Z,101686.81
2018-11-13T22:05:29.954Z,101681.83
2018-11-13T22:07:59.201Z,101682.32
2018-11-13T22:10:28.344Z,101677.18
2018-11-13T22:12:57.696Z,101678.16
2018-11-13T22:15:27.894Z,101681.23
2018-11-13T22:17:57.120Z,101680.69
2018-11-13T22:20:26.411Z,101681.39
2018-11-13T22:22:56.812Z,101684.75
2018-11-13T22:25:26.697Z,101680.54
2018-11-13T22:27:56.925Z,101686.02
2018-11-13T22:30:27.471Z,101684.28
2018-11-13T22:32:56.631Z,101680.87
2018-11-13T22:35:25.834Z,101684.98
2018-11-13T22:37:55.060Z,101671.38
2018-11-13T22:40:25.532Z,101677.72
2018-11-13T22:42:54.781Z,101683.56
2018-11-13T22:45:25.285Z,101675.89
2018-11-13T22:47:54.742Z,101677.50
2018-11-13T22:50:26.211Z,101673.38
2018-11-13T22:52:55.838Z,101664.06
2018-11-13T22:55:25.011Z,101665.03
2018-11-13T22:57:55.168Z,101665.36
2018-11-13T23:00:26.052Z,101665.79
2018-11-13T23:02:55.411Z,101670.27
2018-11-13T23:05:24.672Z,101674.81
2018-11-13T23:07:53.871Z,101675.16
2018-11-13T23:10:23.065Z,101676.25
2018-11-13T23:12:52.276Z,101688.07
2018-11-13T23:15:21.817Z,101684.20
2018-11-13T23:17:50.994Z,101683.29
2018-11-13T23:20:20.989Z,101687.00
2018-11-13T23:22:50.189Z,101687.33
2018-11-13T23:25:20.316Z,101690.00
2018-11-13T23:27:50.702Z,101689.62
2018-11-13T23:30:21.783Z,101687.41
2018-11-13T23:32:51.085Z,101684.73
2018-11-13T23:35:20.373Z,101680.49
2018-11-13T23:37:51.213Z,101681.41
2018-11-13T23:40:22.268Z,101683.20
2018-11-13T23:42:51.850Z,101678.28
2018-11-13T23:45:22.135Z,101685.48
2018-11-13T23:47:51.644Z,101688.86
2018-11-13T23:50:20.896Z,101689.73
2018-11-13T23:52:50.858Z,101687.03
2018-11-13T23:55:20.089Z,101689.93
2018-11-13T23:57:49.310Z,101697.84
